createdAt,value
2022-12-04T00:01:44.269Z,95537.00
2022-12-04T00:04:12.651Z,95523.78
2022-12-04T00:06:40.784Z,95517.28
2022-12-04T00:09:08.839Z,95527.47
2022-12-04T00:11:37.027Z,95531.50
2022-12-04T00:14:07.193Z,95528.06
2022-12-04T00:16:35.732Z,95530.72
2022-12-04T00:19:03.407Z,95539.66
2022-12-04T00:21:30.933Z,95535.13
2022-12-04T00:23:58.485Z,95527.44
2022-12-04T00:26:27.782Z,95536.38
2022-12-04T00:28:55.853Z,95538.22
2022-12-04T00:31:27.156Z,95538.88
2022-12-04T00:33:54.772Z,95539.84
2022-12-04T00:36:25.095Z,95529.06
2022-12-04T00:38:52.672Z,95536.19
2022-12-04T00:41:25.362Z,95535.78
2022-12-04T00:43:53.271Z,95529.47
2022-12-04T00:46:20.867Z,95526.63
2022-12-04T00:48:48.422Z,95518.31
2022-12-04T00:51:20.977Z,95519.75
2022-12-04T00:53:50.570Z,95533.19
2022-12-04T00:56:27.796Z,95527.47
2022-12-04T00:58:58.773Z,95526.44
2022-12-04T01:01:30.090Z,95511.19
2022-12-04T01:04:00.004Z,95524.22
2022-12-04T01:06:33.405Z,95504.09
2022-12-04T01:09:10.606Z,95527.13
2022-12-04T01:11:39.647Z,95521.66
2022-12-04T01:14:07.822Z,95524.28
2022-12-04T01:16:44.101Z,95524.31
2022-12-04T01:19:18.770Z,95504.34
2022-12-04T01:21:46.788Z,95519.38
2022-12-04T01:24:18.899Z,95510.03
2022-12-04T01:26:47.770Z,95514.50
2022-12-04T01:29:15.179Z,95514.91
2022-12-04T01:31:42.845Z,95509.00
2022-12-04T01:34:17.497Z,95508.00
2022-12-04T01:36:46.438Z,95503.31
2022-12-04T01:39:23.777Z,95498.47
2022-12-04T01:41:58.505Z,95502.34
2022-12-04T01:44:27.026Z,95505.72
2022-12-04T01:46:56.890Z,95503.69
2022-12-04T01:49:31.297Z,95500.44
2022-12-04T01:52:03.987Z,95496.34
2022-12-04T01:54:41.006Z,95502.47
2022-12-04T01:57:11.854Z,95500.84
2022-12-04T01:59:52.405Z,95493.91
2022-12-04T02:02:26.918Z,95488.00
2022-12-04T02:04:55.003Z,95489.22
2022-12-04T02:07:22.463Z,95489.22
2022-12-04T02:09:56.158Z,95487.53
2022-12-04T02:12:32.953Z,95486.16
2022-12-04T02:15:18.091Z,95488.81
2022-12-04T02:17:48.357Z,95498.97
2022-12-04T02:20:27.367Z,95487.59
2022-12-04T02:23:13.158Z,95484.53
2022-12-04T02:25:52.595Z,95496.34
2022-12-04T02:28:27.167Z,95483.91
2022-12-04T02:30:58.988Z,95491.59
2022-12-04T02:34:07.788Z,95492.00
2022-12-04T02:36:45.234Z,95480.56
2022-12-04T02:39:34.875Z,95486.09
2022-12-04T02:42:11.078Z,95492.56
2022-12-04T02:44:45.206Z,95484.69
2022-12-04T02:47:16.601Z,95498.53
2022-12-04T02:49:55.732Z,95495.31
2022-12-04T02:52:32.149Z,95480.84
2022-12-04T02:55:08.663Z,95488.00
2022-12-04T02:57:41.125Z,95493.88
2022-12-04T03:00:10.086Z,95480.41
2022-12-04T03:02:49.967Z,95487.38
2022-12-04T03:05:21.760Z,95500.41
2022-12-04T03:07:57.550Z,95491.88
2022-12-04T03:10:36.781Z,95492.31
2022-12-04T03:13:10.446Z,95494.50
2022-12-04T03:15:43.941Z,95495.94
2022-12-04T03:18:22.878Z,95490.03
2022-12-04T03:20:57.743Z,95486.31
2022-12-04T03:23:37.766Z,95490.00
2022-12-04T03:26:15.881Z,95492.66
2022-12-04T03:28:57.124Z,95492.66
2022-12-04T03:31:40.479Z,95498.91
2022-12-04T03:34:10.167Z,95488.91
2022-12-04T03:36:47.329Z,95489.34
2022-12-04T03:39:34.839Z,95477.13
2022-12-04T03:42:11.414Z,95495.63
2022-12-04T03:44:44.642Z,95485.28
2022-12-04T03:47:12.125Z,95477.50
2022-12-04T03:49:59.492Z,95486.72
2022-12-04T03:52:59.516Z,95487.28
2022-12-04T03:55:35.619Z,95482.56
2022-12-04T03:58:08.374Z,95485.41
2022-12-04T04:00:39.902Z,95479.13
2022-12-04T04:03:13.321Z,95467.13
2022-12-04T04:05:45.888Z,95472.41
2022-12-04T04:08:28.226Z,95475.22
2022-12-04T04:11:00.926Z,95484.31
2022-12-04T04:13:57.475Z,95476.19
2022-12-04T04:16:47.225Z,95469.63
2022-12-04T04:19:37.695Z,95463.25
2022-12-04T04:22:27.362Z,95482.34
2022-12-04T04:25:04.658Z,95478.13
2022-12-04T04:27:32.050Z,95464.81
2022-12-04T04:30:00.136Z,95476.66
2022-12-04T04:32:46.039Z,95464.97
2022-12-04T04:35:22.034Z,95473.81
2022-12-04T04:37:52.259Z,95477.38
2022-12-04T04:40:26.016Z,95466.38
2022-12-04T04:43:10.887Z,95464.06
2022-12-04T04:45:45.952Z,95452.88
2022-12-04T04:48:29.560Z,95447.41
2022-12-04T04:51:00.132Z,95477.59
2022-12-04T04:53:33.619Z,95456.88
2022-12-04T04:56:03.018Z,95470.13
2022-12-04T04:58:30.236Z,95478.78
2022-12-04T05:01:02.613Z,95479.88
2022-12-04T05:03:31.871Z,95466.22
2022-12-04T05:05:59.755Z,95465.31
2022-12-04T05:08:27.292Z,95462.44
2022-12-04T05:10:54.864Z,95467.69
2022-12-04T05:13:22.584Z,95471.72
2022-12-04T05:16:01.431Z,95467.13
2022-12-04T05:18:29.218Z,95473.97
2022-12-04T05:20:57.189Z,95475.00
2022-12-04T05:23:24.927Z,95466.81
2022-12-04T05:26:03.099Z,95471.75
2022-12-04T05:28:30.427Z,95462.91
2022-12-04T05:31:00.238Z,95459.09
2022-12-04T05:33:27.961Z,95476.28
2022-12-04T05:36:03.554Z,95474.78
2022-12-04T05:38:31.510Z,95461.91
2022-12-04T05:41:20.997Z,95462.78
2022-12-04T05:44:30.297Z,95471.81
2022-12-04T05:47:22.118Z,95478.50
2022-12-04T05:50:41.508Z,95466.84
2022-12-04T05:53:09.145Z,95464.78
2022-12-04T05:55:37.756Z,95477.31
2022-12-04T05:58:05.341Z,95484.06
2022-12-04T06:00:32.666Z,95485.28
2022-12-04T06:03:00.342Z,95486.13
2022-12-04T06:05:27.653Z,95478.47
2022-12-04T06:07:55.262Z,95489.91
2022-12-04T06:10:22.583Z,95473.03
2022-12-04T06:12:50.056Z,95475.41
2022-12-04T06:15:17.258Z,95466.56
2022-12-04T06:17:44.789Z,95471.38
2022-12-04T06:20:12.389Z,95486.13
2022-12-04T06:22:41.914Z,95478.75
2022-12-04T06:25:09.605Z,95480.81
2022-12-04T06:27:37.181Z,95489.72
2022-12-04T06:30:07.983Z,95481.47
2022-12-04T06:32:35.544Z,95490.84
2022-12-04T06:35:02.702Z,95489.66
2022-12-04T06:37:30.217Z,95484.78
2022-12-04T06:39:57.800Z,95500.59
2022-12-04T06:42:25.586Z,95476.50
2022-12-04T06:44:52.728Z,95509.63
2022-12-04T06:47:20.361Z,95495.81
2022-12-04T06:49:50.925Z,95490.91
2022-12-04T06:52:18.789Z,95501.91
2022-12-04T06:54:45.907Z,95499.44
2022-12-04T06:57:13.530Z,95495.03
2022-12-04T06:59:40.661Z,95505.25
2022-12-04T07:02:09.711Z,95501.75
2022-12-04T07:04:36.949Z,95497.66
2022-12-04T07:07:04.522Z,95498.28
2022-12-04T07:09:31.674Z,95483.44
2022-12-04T07:11:59.187Z,95491.81
2022-12-04T07:14:26.624Z,95494.47
2022-12-04T07:16:54.447Z,95492.47
2022-12-04T07:19:21.669Z,95499.03
2022-12-04T07:21:49.179Z,95491.81
2022-12-04T07:24:17.517Z,95498.41
2022-12-04T07:26:45.346Z,95476.03
2022-12-04T07:29:12.833Z,95485.09
2022-12-04T07:31:40.521Z,95475.75
2022-12-04T07:34:08.108Z,95486.41
2022-12-04T07:36:35.888Z,95489.47
2022-12-04T07:39:03.144Z,95465.50
2022-12-04T07:41:30.682Z,95485.84
2022-12-04T07:43:59.021Z,95475.88
2022-12-04T07:46:28.214Z,95478.75
2022-12-04T07:48:56.961Z,95477.13
2022-12-04T07:51:27.542Z,95473.03
2022-12-04T07:54:02.770Z,95477.91
2022-12-04T07:56:31.276Z,95481.16
2022-12-04T07:58:59.657Z,95488.47
2022-12-04T08:01:27.301Z,95487.06
2022-12-04T08:03:56.655Z,95480.31
2022-12-04T08:06:25.933Z,95476.66
2022-12-04T08:09:18.054Z,95475.59
2022-12-04T08:12:05.740Z,95443.19
2022-12-04T08:14:38.439Z,95450.53
2022-12-04T08:17:06.911Z,95467.66
2022-12-04T08:19:34.034Z,95473.50
2022-12-04T08:22:01.578Z,95477.00
2022-12-04T08:24:28.710Z,95486.34
2022-12-04T08:26:56.224Z,95479.00
2022-12-04T08:29:23.330Z,95480.16
2022-12-04T08:31:50.901Z,95474.78
2022-12-04T08:34:18.196Z,95477.63
2022-12-04T08:36:45.804Z,95473.50
2022-12-04T08:39:13.384Z,95464.75
2022-12-04T08:41:41.129Z,95462.19
2022-12-04T08:44:10.026Z,95460.88
2022-12-04T08:46:39.447Z,95448.25
2022-12-04T08:49:06.797Z,95447.72
2022-12-04T08:51:37.365Z,95448.53
2022-12-04T08:54:07.344Z,95426.03
2022-12-04T08:56:36.279Z,95447.66
2022-12-04T08:59:04.736Z,95437.69
2022-12-04T09:01:32.959Z,95445.38
2022-12-04T09:04:00.513Z,95440.78
2022-12-04T09:06:28.315Z,95451.13
2022-12-04T09:08:56.934Z,95442.22
2022-12-04T09:11:27.685Z,95453.72
2022-12-04T09:13:56.041Z,95453.13
2022-12-04T09:16:26.333Z,95453.44
2022-12-04T09:18:54.852Z,95451.41
2022-12-04T09:21:24.154Z,95435.00
2022-12-04T09:23:52.043Z,95441.94
2022-12-04T09:26:24.169Z,95441.75
2022-12-04T09:28:53.099Z,95450.09
2022-12-04T09:31:21.936Z,95452.34
2022-12-04T09:33:49.981Z,95439.97
2022-12-04T09:36:19.039Z,95435.91
2022-12-04T09:38:49.633Z,95436.03
2022-12-04T09:41:36.284Z,95441.66
2022-12-04T09:44:28.214Z,95436.59
2022-12-04T09:47:12.405Z,95427.81
2022-12-04T09:49:50.431Z,95425.97
2022-12-04T09:52:31.154Z,95411.69
2022-12-04T09:55:01.005Z,95419.16
2022-12-04T09:57:46.563Z,95418.31
2022-12-04T10:00:19.678Z,95409.00
2022-12-04T10:03:18.916Z,95410.22
2022-12-04T10:06:32.011Z,95410.84
2022-12-04T10:09:34.454Z,95408.31
2022-12-04T10:16:43.467Z,95399.41
2022-12-04T10:19:50.785Z,95395.94
2022-12-04T10:22:21.515Z,95400.03
2022-12-04T10:24:54.958Z,95396.78
2022-12-04T10:27:52.026Z,95392.25
2022-12-04T10:30:24.573Z,95384.56
2022-12-04T10:33:18.408Z,95374.66
2022-12-04T10:35:50.447Z,95364.44
2022-12-04T10:38:35.715Z,95360.84
2022-12-04T10:41:25.517Z,95358.38
2022-12-04T10:43:53.404Z,95355.00
2022-12-04T10:46:28.000Z,95347.53
2022-12-04T10:49:02.679Z,95329.63
2022-12-04T10:51:39.954Z,95325.72
2022-12-04T10:54:45.423Z,95315.81
2022-12-04T10:57:16.666Z,95311.19
2022-12-04T10:59:56.127Z,95293.41
2022-12-04T11:02:34.634Z,95299.03
2022-12-04T11:05:23.293Z,95284.94
2022-12-04T11:07:51.950Z,95287.72
2022-12-04T11:10:42.135Z,95289.81
2022-12-04T11:13:12.084Z,95291.31
2022-12-04T11:15:48.719Z,95281.28
2022-12-04T11:18:24.323Z,95278.69
2022-12-04T11:20:59.889Z,95283.03
2022-12-04T11:23:32.620Z,95281.16
2022-12-04T11:26:05.855Z,95268.13
2022-12-04T11:28:42.868Z,95254.38
2022-12-04T11:31:19.388Z,95251.31
2022-12-04T11:33:52.367Z,95258.44
2022-12-04T11:36:25.324Z,95259.94
2022-12-04T11:39:04.225Z,95259.31
2022-12-04T11:41:33.389Z,95245.94
2022-12-04T11:44:01.189Z,95244.56
2022-12-04T11:46:31.508Z,95245.06
2022-12-04T11:48:59.565Z,95253.50
2022-12-04T11:52:26.115Z,95250.50
2022-12-04T11:55:08.735Z,95257.47
2022-12-04T11:57:55.080Z,95253.16
2022-12-04T12:00:23.463Z,95258.50
2022-12-04T12:03:10.306Z,95238.41
2022-12-04T12:05:59.554Z,95245.16
2022-12-04T12:08:41.919Z,95246.88
2022-12-04T12:11:37.794Z,95251.47
2022-12-04T12:14:20.151Z,95234.34
2022-12-04T12:16:58.378Z,95248.69
2022-12-04T12:20:04.368Z,95243.69
2022-12-04T12:23:09.085Z,95249.06
2022-12-04T12:26:10.283Z,95243.31
2022-12-04T12:29:02.479Z,95246.31
2022-12-04T12:31:39.586Z,95226.63
2022-12-04T12:34:23.230Z,95247.16
2022-12-04T12:36:57.809Z,95244.81
2022-12-04T12:40:08.050Z,95248.31
2022-12-04T12:42:44.292Z,95232.41
2022-12-04T12:45:17.401Z,95242.34
2022-12-04T12:47:51.089Z,95237.59
2022-12-04T12:50:24.624Z,95230.78
2022-12-04T12:52:52.654Z,95236.28
2022-12-04T12:55:26.243Z,95232.31
2022-12-04T12:58:16.940Z,95216.53
2022-12-04T13:00:50.197Z,95239.13
2022-12-04T13:03:37.716Z,95245.34
2022-12-04T13:06:12.364Z,95242.72
2022-12-04T13:08:53.108Z,95233.06
2022-12-04T13:11:23.846Z,95243.56
2022-12-04T13:14:03.931Z,95234.13
2022-12-04T13:17:05.098Z,95244.91
2022-12-04T13:19:46.476Z,95246.50
2022-12-04T13:22:29.069Z,95246.25
2022-12-04T13:25:34.484Z,95250.25
2022-12-04T13:28:36.561Z,95262.00
2022-12-04T13:31:19.385Z,95252.28
2022-12-04T13:34:14.775Z,95259.00
2022-12-04T13:37:16.519Z,95254.41
2022-12-04T13:39:52.789Z,95250.88
2022-12-04T13:42:28.894Z,95260.00
2022-12-04T13:45:03.725Z,95253.50
2022-12-04T13:47:34.810Z,95258.75
2022-12-04T13:50:27.284Z,95259.78
2022-12-04T13:52:55.971Z,95259.16
2022-12-04T13:55:33.230Z,95251.09
2022-12-04T13:58:04.433Z,95257.56
2022-12-04T14:00:35.110Z,95264.47
2022-12-04T14:03:26.357Z,95266.28
2022-12-04T14:05:54.330Z,95256.31
2022-12-04T14:08:28.971Z,95264.34
2022-12-04T14:11:09.069Z,95276.06
2022-12-04T14:13:43.798Z,95267.97
2022-12-04T14:16:32.590Z,95254.44
2022-12-04T14:19:03.045Z,95265.88
2022-12-04T14:21:47.812Z,95266.63
2022-12-04T14:24:30.064Z,95273.56
2022-12-04T14:27:11.778Z,95271.75
2022-12-04T14:29:39.874Z,95281.25
2022-12-04T14:32:21.699Z,95277.28
2022-12-04T14:34:50.457Z,95274.78
2022-12-04T14:37:23.350Z,95263.34
2022-12-04T14:39:52.233Z,95268.41
2022-12-04T14:42:28.205Z,95271.97
2022-12-04T14:45:01.198Z,95275.16
2022-12-04T14:47:37.109Z,95276.13
2022-12-04T14:50:34.844Z,95280.06
2022-12-04T14:53:40.989Z,95279.16
2022-12-04T14:56:27.590Z,95267.72
2022-12-04T14:58:55.873Z,95283.53
2022-12-04T15:01:51.175Z,95289.03
2022-12-04T15:04:32.959Z,95271.47
2022-12-04T15:07:03.048Z,95293.25
2022-12-04T15:09:49.147Z,95283.88
2022-12-04T15:12:35.773Z,95273.34
2022-12-04T15:15:22.464Z,95295.44
2022-12-04T15:18:11.164Z,95298.56
2022-12-04T15:20:56.264Z,95295.88
2022-12-04T15:23:31.744Z,95304.66
2022-12-04T15:26:02.627Z,95304.16
2022-12-04T15:28:44.398Z,95296.75
2022-12-04T15:31:20.440Z,95302.47
2022-12-04T15:33:51.724Z,95304.09
2022-12-04T15:36:25.005Z,95313.47
2022-12-04T15:38:56.134Z,95317.81
2022-12-04T15:41:33.498Z,95316.44
2022-12-04T15:44:03.253Z,95323.47
2022-12-04T15:46:34.870Z,95319.75
2022-12-04T15:49:20.593Z,95318.56
2022-12-04T15:51:48.802Z,95314.56
2022-12-04T15:54:27.772Z,95306.81
2022-12-04T15:57:04.175Z,95313.84
2022-12-04T15:59:36.312Z,95323.09
2022-12-04T16:02:24.036Z,95326.56
2022-12-04T16:04:51.956Z,95321.72
2022-12-04T16:07:24.309Z,95334.28
2022-12-04T16:09:59.533Z,95325.56
2022-12-04T16:12:32.359Z,95329.81
2022-12-04T16:15:00.408Z,95334.63
2022-12-04T16:17:32.521Z,95334.16
2022-12-04T16:20:01.341Z,95338.91
2022-12-04T16:22:30.533Z,95339.56
2022-12-04T16:24:58.873Z,95333.81
2022-12-04T16:27:26.653Z,95349.75
2022-12-04T16:29:55.662Z,95339.75
2022-12-04T16:32:28.804Z,95328.50
2022-12-04T16:34:57.116Z,95338.63
2022-12-04T16:37:29.602Z,95314.66
2022-12-04T16:40:00.043Z,95338.53
2022-12-04T16:42:30.241Z,95345.53
2022-12-04T16:45:01.602Z,95337.41
2022-12-04T16:47:31.108Z,95340.28
2022-12-04T16:50:00.062Z,95329.97
2022-12-04T16:52:29.926Z,95317.94
2022-12-04T16:55:04.420Z,95345.63
2022-12-04T16:57:34.420Z,95332.16
2022-12-04T17:00:03.180Z,95332.16
2022-12-04T17:02:32.187Z,95311.09
2022-12-04T17:05:00.339Z,95333.03
2022-12-04T17:07:28.120Z,95334.44
2022-12-04T17:09:57.170Z,95330.59
2022-12-04T17:12:25.817Z,95342.41
2022-12-04T17:14:55.507Z,95341.97
2022-12-04T17:17:23.068Z,95329.41
2022-12-04T17:19:50.746Z,95342.03
2022-12-04T17:22:21.168Z,95337.53
2022-12-04T17:24:54.401Z,95339.97
2022-12-04T17:27:24.573Z,95347.72
2022-12-04T17:29:52.214Z,95350.16
2022-12-04T17:32:19.471Z,95356.03
2022-12-04T17:34:47.192Z,95352.56
2022-12-04T17:37:14.991Z,95339.38
2022-12-04T17:39:42.867Z,95337.13
2022-12-04T17:42:10.134Z,95335.50
2022-12-04T17:44:37.745Z,95344.03
2022-12-04T17:47:05.359Z,95339.38
2022-12-04T17:49:33.186Z,95328.19
2022-12-04T17:52:00.928Z,95339.38
2022-12-04T17:54:28.655Z,95337.53
2022-12-04T17:56:57.979Z,95339.97
2022-12-04T17:59:26.089Z,95334.44
2022-12-04T18:01:53.535Z,95330.97
2022-12-04T18:04:21.465Z,95333.41
2022-12-04T18:06:48.829Z,95332.41
2022-12-04T18:09:17.443Z,95340.59
2022-12-04T18:11:47.301Z,95340.78
2022-12-04T18:14:17.817Z,95325.31
2022-12-04T18:16:53.093Z,95330.81
2022-12-04T18:19:25.915Z,95335.09
2022-12-04T18:21:57.207Z,95339.78
2022-12-04T18:24:26.500Z,95328.97
2022-12-04T18:26:54.184Z,95327.31
2022-12-04T18:29:26.137Z,95322.44
2022-12-04T18:31:54.671Z,95342.72
2022-12-04T18:34:22.923Z,95345.75
2022-12-04T18:36:50.605Z,95340.28
2022-12-04T18:39:21.244Z,95338.44
2022-12-04T18:41:50.225Z,95346.59
2022-12-04T18:44:21.449Z,95340.72
2022-12-04T18:46:51.259Z,95310.44
2022-12-04T18:49:19.966Z,95338.88
2022-12-04T18:51:49.899Z,95329.97
2022-12-04T18:54:22.469Z,95333.84
2022-12-04T18:56:50.490Z,95343.34
2022-12-04T18:59:20.789Z,95316.94
2022-12-04T19:01:50.436Z,95340.09
2022-12-04T19:04:21.241Z,95347.59
2022-12-04T19:06:55.900Z,95341.75
2022-12-04T19:12:15.392Z,95350.84
2022-12-04T19:14:43.222Z,95350.66
2022-12-04T19:17:12.299Z,95351.63
2022-12-04T19:19:41.840Z,95352.84
2022-12-04T19:22:10.565Z,95344.31
2022-12-04T19:24:39.674Z,95358.47
2022-12-04T19:27:12.713Z,95357.25
2022-12-04T19:29:43.712Z,95368.22
2022-12-04T19:32:12.646Z,95359.69
2022-12-04T19:34:41.426Z,95355.81
2022-12-04T19:37:09.775Z,95355.19
2022-12-04T19:39:37.649Z,95349.53
2022-12-04T19:42:05.172Z,95352.81
2022-12-04T19:44:50.005Z,95347.53
2022-12-04T19:47:19.388Z,95332.84
2022-12-04T19:49:48.777Z,95339.00
2022-12-04T19:52:17.624Z,95327.56
2022-12-04T19:54:47.155Z,95342.34
2022-12-04T19:57:15.718Z,95346.63
2022-12-04T19:59:46.584Z,95335.75
2022-12-04T20:02:15.073Z,95342.09
2022-12-04T20:04:43.477Z,95351.63
2022-12-04T20:07:10.909Z,95340.81
2022-12-04T20:09:38.485Z,95357.34
2022-12-04T20:12:06.053Z,95360.41
2022-12-04T20:14:34.107Z,95335.19
2022-12-04T20:17:04.151Z,95338.69
2022-12-04T20:19:31.987Z,95341.47
2022-12-04T20:21:59.674Z,95347.41
2022-12-04T20:24:27.514Z,95331.31
2022-12-04T20:26:54.922Z,95341.88
2022-12-04T20:29:22.678Z,95333.59
2022-12-04T20:31:50.063Z,95327.06
2022-12-04T20:34:19.213Z,95295.78
2022-12-04T20:36:49.214Z,95337.75
2022-12-04T20:39:18.319Z,95327.75
2022-12-04T20:41:47.113Z,95329.75
2022-12-04T20:44:17.063Z,95330.41
2022-12-04T20:46:45.168Z,95329.38
2022-12-04T20:49:20.736Z,95339.63
2022-12-04T20:51:48.840Z,95346.13
2022-12-04T20:54:19.039Z,95348.22
2022-12-04T20:56:49.017Z,95347.00
2022-12-04T20:59:19.094Z,95352.69
2022-12-04T21:01:47.512Z,95347.84
2022-12-04T21:04:18.085Z,95351.13
2022-12-04T21:06:49.863Z,95348.31
2022-12-04T21:09:21.603Z,95348.97
2022-12-04T21:11:56.215Z,95337.81
2022-12-04T21:14:45.586Z,95352.50
2022-12-04T21:17:18.682Z,95353.72
2022-12-04T21:19:48.388Z,95357.16
2022-12-04T21:22:17.544Z,95349.00
2022-12-04T21:24:46.924Z,95335.81
2022-12-04T21:27:19.175Z,95348.19
2022-12-04T21:29:50.076Z,95350.47
2022-12-04T21:32:20.183Z,95351.47
2022-12-04T21:34:49.063Z,95355.69
2022-12-04T21:37:16.393Z,95339.22
2022-12-04T21:39:44.328Z,95357.78
2022-12-04T21:42:30.452Z,95353.72
2022-12-04T21:44:58.997Z,95350.97
2022-12-04T21:47:26.913Z,95350.13
2022-12-04T21:49:54.815Z,95351.16
2022-12-04T21:52:22.185Z,95349.94
2022-12-04T21:54:54.322Z,95354.22
2022-12-04T21:57:21.845Z,95358.28
2022-12-04T21:59:51.630Z,95353.19
2022-12-04T22:02:19.486Z,95337.94
2022-12-04T22:04:47.601Z,95337.13
2022-12-04T22:07:14.955Z,95337.94
2022-12-04T22:09:44.336Z,95344.41
2022-12-04T22:12:33.155Z,95341.59
2022-12-04T22:14:59.120Z,95336.31
2022-12-04T22:17:29.791Z,95329.00
2022-12-04T22:19:57.531Z,95308.84
2022-12-04T22:22:24.839Z,95331.44
2022-12-04T22:24:52.324Z,95326.34
2022-12-04T22:27:19.429Z,95322.91
2022-12-04T22:29:50.655Z,95333.06
2022-12-04T22:32:19.381Z,95314.97
2022-12-04T22:34:49.708Z,95313.94
2022-12-04T22:37:17.365Z,95319.22
2022-12-04T22:39:44.873Z,95320.47
2022-12-04T22:42:12.094Z,95335.28
2022-12-04T22:44:39.574Z,95335.09
2022-12-04T22:47:06.952Z,95319.25
2022-12-04T22:49:34.470Z,95336.31
2022-12-04T22:52:01.894Z,95339.59
2022-12-04T22:54:29.389Z,95340.16
2022-12-04T22:56:56.579Z,95344.03
2022-12-04T22:59:24.094Z,95352.56
2022-12-04T23:01:51.276Z,95346.88
2022-12-04T23:04:18.866Z,95342.00
2022-12-04T23:06:46.005Z,95340.78
2022-12-04T23:09:16.567Z,95338.75
2022-12-04T23:11:44.657Z,95329.78
2022-12-04T23:14:15.414Z,95349.13
2022-12-04T23:16:43.280Z,95347.09
2022-12-04T23:19:14.452Z,95335.91
2022-12-04T23:21:41.975Z,95346.06
2022-12-04T23:24:10.399Z,95342.81
2022-12-04T23:26:40.369Z,95345.25
2022-12-04T23:29:29.786Z,95337.53
2022-12-04T23:31:55.617Z,95345.69
2022-12-04T23:34:23.189Z,95348.50
2022-12-04T23:36:50.380Z,95340.78
2022-12-04T23:39:17.872Z,95340.78
2022-12-04T23:41:45.111Z,95335.09
2022-12-04T23:44:12.514Z,95342.00
2022-12-04T23:46:39.725Z,95341.19
2022-12-04T23:49:07.199Z,95331.63
2022-12-04T23:51:34.370Z,95328.78
2022-12-04T23:54:01.918Z,95320.06
2022-12-04T23:56:30.533Z,95327.97
2022-12-04T23:58:58.518Z,95320.66
